Terminal Aerodrome Forecast
Issued by NWS Sterling, VA

Current Version | Previous Version | Graphics & Text | Print | Product List | Glossary On
Versions: 1 2 3 4 5 6 7 8 9 10 11 12 13 14 15 16 17 18 19 20 21
000
FTUS41 KLWX 252000 AAA
TAFIAD
TAF AMD
KIAD 252050Z 2521/2624 24008KT P6SM FEW250
     FM260800 30007KT P6SM FEW250
     FM261500 30015G25KT P6SM SKC=

USA.gov is the U.S. government's official web portal to all federal, state and local government web resources and services.